Kilimanjaro, Tanzania

8:42 AM EAT on September 02, 2015 (GMT +0300)
Kilimanjaro International | | Change Station
CLOSE
Current Station
Airport
Location: Kilimanjaro,
Elevation: 2940 ft
Nearby Weather Stations

Elev 2940 ft 3.43 °S, 37.07 °E | Updated 42 minutes ago

Light Rain
Light Rain
66 °F
Feels Like 66 °F
N
0
Wind Variable Wind from North

Today
High -- | Low -- °F
--% Chance of Precip.
Yesterday
High -- | Low -- °F
Precip. -- in
6:30 AM 6:32 PM
Waning Gibbous, 83% visible
Pressure 30.12 in
Visibility 6.2 miles
Clouds Mostly Cloudy 1800 ft
Scattered Clouds 8000 ft
Dew Point 61 °F
Humidity 83%
Rainfall 0.00 in
Snow Depth Not available.
UV 1 out of 12
Pollen Not available.
Air Quality Not available.
Flu Activity Not available.
METAR HTKJ 020500Z 00000KT 9999 -RA BKN018 SCT080 19/16 Q1020 NOSIG
Pressure 30.12 in
Visibility 6.2 miles
Clouds Mostly Cloudy 1800 ft
Scattered Clouds 8000 ft
Dew Point 61 °F
Humidity 83%
Rainfall 0.00 in
Snow Depth Not available.
UV 1 out of 12
Pollen Not available.
Air Quality Not available.
Flu Activity Not available.
METAR HTKJ 020500Z 00000KT 9999 -RA BKN018 SCT080 19/16 Q1020 NOSIG

10-Day Weather Forecast

×

Almanac

Astronomy

Sep. 02, 2015 Rise Set
Actual Time
Civil Twilight
Nautical Twilight
Astronomical Twilight
Moon
Length of Visible Light
Length of Day
Tomorrow will be .
, % of the Moon is Illuminated

Today's Extremes

Country Highs Country Lows

Community

WunderPhotos

Upload Photos

1,851,709 photos uploaded!

WunderBlogs® & News

Nearby

Air Quality

  Air Quality AQ Index Pollutant
Not available.

Snow Depth

Station Depth Elevation

Earthquake Activity

City Distance Mag. Time & Date
Minimum magnitude displayed is 2.5.

Coastal Water Temperatures

Place Temperature

Stations

Nearby Weather Stations

Station Location Temp. Windchill Dew Point Humidity Wind Precip. Elev Updated Type